sensor_id;sensor_type;location;lat;lon;timestamp;P1;durP1;ratioP1;P2;durP2;ratioP2
6149;SDS011;3106;42.670;23.318;2022-12-29T00:01:43;74.43;;;35.03;;
6149;SDS011;3106;42.670;23.318;2022-12-29T00:04:10;85.50;;;34.90;;
6149;SDS011;3106;42.670;23.318;2022-12-29T00:06:39;70.83;;;35.17;;
6149;SDS011;3106;42.670;23.318;2022-12-29T00:09:06;71.60;;;34.00;;
6149;SDS011;3106;42.670;23.318;2022-12-29T00:11:34;74.03;;;34.13;;
6149;SDS011;3106;42.670;23.318;2022-12-29T00:14:01;72.47;;;32.57;;
6149;SDS011;3106;42.670;23.318;2022-12-29T00:16:45;70.27;;;32.13;;
6149;SDS011;3106;42.670;23.318;2022-12-29T00:19:12;75.33;;;33.87;;
6149;SDS011;3106;42.670;23.318;2022-12-29T00:21:56;66.53;;;30.67;;
6149;SDS011;3106;42.670;23.318;2022-12-29T00:24:42;64.80;;;31.20;;
6149;SDS011;3106;42.670;23.318;2022-12-29T00:27:28;67.27;;;29.27;;
6149;SDS011;3106;42.670;23.318;2022-12-29T00:30:02;67.40;;;30.67;;
6149;SDS011;3106;42.670;23.318;2022-12-29T00:32:51;64.47;;;30.20;;
6149;SDS011;3106;42.670;23.318;2022-12-29T00:35:36;64.27;;;30.47;;
6149;SDS011;3106;42.670;23.318;2022-12-29T00:38:06;65.73;;;28.83;;
6149;SDS011;3106;42.670;23.318;2022-12-29T00:40:52;59.13;;;26.63;;
6149;SDS011;3106;42.670;23.318;2022-12-29T00:43:37;66.70;;;29.53;;
6149;SDS011;3106;42.670;23.318;2022-12-29T00:46:23;55.13;;;27.20;;
6149;SDS011;3106;42.670;23.318;2022-12-29T00:48:50;53.90;;;24.57;;
6149;SDS011;3106;42.670;23.318;2022-12-29T00:51:37;45.80;;;21.33;;
6149;SDS011;3106;42.670;23.318;2022-12-29T00:54:04;52.53;;;22.23;;
6149;SDS011;3106;42.670;23.318;2022-12-29T00:56:31;44.27;;;21.37;;
6149;SDS011;3106;42.670;23.318;2022-12-29T00:59:01;48.40;;;22.27;;
6149;SDS011;3106;42.670;23.318;2022-12-29T01:01:31;47.43;;;22.83;;
6149;SDS011;3106;42.670;23.318;2022-12-29T01:03:58;49.83;;;24.77;;
6149;SDS011;3106;42.670;23.318;2022-12-29T01:06:25;56.83;;;28.60;;
6149;SDS011;3106;42.670;23.318;2022-12-29T01:08:52;59.80;;;29.83;;
6149;SDS011;3106;42.670;23.318;2022-12-29T01:11:33;63.87;;;30.00;;
6149;SDS011;3106;42.670;23.318;2022-12-29T01:14:01;56.83;;;27.80;;
6149;SDS011;3106;42.670;23.318;2022-12-29T01:16:31;56.53;;;27.60;;
6149;SDS011;3106;42.670;23.318;2022-12-29T01:18:59;58.83;;;27.30;;
6149;SDS011;3106;42.670;23.318;2022-12-29T01:21:28;54.53;;;26.27;;
6149;SDS011;3106;42.670;23.318;2022-12-29T01:23:55;50.27;;;24.97;;
6149;SDS011;3106;42.670;23.318;2022-12-29T01:26:22;53.13;;;25.73;;
6149;SDS011;3106;42.670;23.318;2022-12-29T01:28:48;56.27;;;26.30;;
6149;SDS011;3106;42.670;23.318;2022-12-29T01:31:20;55.20;;;26.27;;
6149;SDS011;3106;42.670;23.318;2022-12-29T01:33:49;52.40;;;25.67;;
6149;SDS011;3106;42.670;23.318;2022-12-29T01:36:16;59.47;;;25.57;;
6149;SDS011;3106;42.670;23.318;2022-12-29T01:38:44;55.03;;;25.70;;
6149;SDS011;3106;42.670;23.318;2022-12-29T01:41:17;52.90;;;24.93;;
6149;SDS011;3106;42.670;23.318;2022-12-29T01:43:46;46.87;;;21.63;;
6149;SDS011;3106;42.670;23.318;2022-12-29T01:46:22;40.60;;;21.07;;
6149;SDS011;3106;42.670;23.318;2022-12-29T01:48:55;45.87;;;20.40;;
6149;SDS011;3106;42.670;23.318;2022-12-29T01:51:24;45.13;;;20.70;;
6149;SDS011;3106;42.670;23.318;2022-12-29T01:53:54;39.57;;;19.23;;
6149;SDS011;3106;42.670;23.318;2022-12-29T01:56:24;47.97;;;21.20;;
6149;SDS011;3106;42.670;23.318;2022-12-29T01:58:53;52.10;;;20.87;;
6149;SDS011;3106;42.670;23.318;2022-12-29T02:01:29;38.90;;;19.93;;
6149;SDS011;3106;42.670;23.318;2022-12-29T02:03:57;38.63;;;19.90;;
6149;SDS011;3106;42.670;23.318;2022-12-29T02:06:25;40.60;;;19.60;;
6149;SDS011;3106;42.670;23.318;2022-12-29T02:08:56;50.43;;;21.53;;
6149;SDS011;3106;42.670;23.318;2022-12-29T02:11:25;43.30;;;20.60;;
6149;SDS011;3106;42.670;23.318;2022-12-29T02:13:57;45.60;;;21.13;;
6149;SDS011;3106;42.670;23.318;2022-12-29T02:16:31;44.60;;;21.53;;
6149;SDS011;3106;42.670;23.318;2022-12-29T02:19:41;47.13;;;21.23;;
6149;SDS011;3106;42.670;23.318;2022-12-29T02:22:42;41.03;;;19.83;;
6149;SDS011;3106;42.670;23.318;2022-12-29T02:28:50;39.07;;;20.00;;
6149;SDS011;3106;42.670;23.318;2022-12-29T02:31:37;41.60;;;19.07;;
6149;SDS011;3106;42.670;23.318;2022-12-29T02:34:10;48.40;;;19.17;;
6149;SDS011;3106;42.670;23.318;2022-12-29T02:36:51;32.70;;;17.60;;
6149;SDS011;3106;42.670;23.318;2022-12-29T02:39:36;36.07;;;17.97;;
6149;SDS011;3106;42.670;23.318;2022-12-29T02:42:18;34.50;;;17.23;;
6149;SDS011;3106;42.670;23.318;2022-12-29T02:44:52;38.07;;;18.43;;
6149;SDS011;3106;42.670;23.318;2022-12-29T02:47:28;36.93;;;17.97;;
6149;SDS011;3106;42.670;23.318;2022-12-29T02:50:06;38.37;;;18.93;;
6149;SDS011;3106;42.670;23.318;2022-12-29T02:52:38;44.70;;;21.13;;
6149;SDS011;3106;42.670;23.318;2022-12-29T02:55:10;36.33;;;18.40;;
6149;SDS011;3106;42.670;23.318;2022-12-29T02:57:36;38.13;;;17.53;;
6149;SDS011;3106;42.670;23.318;2022-12-29T03:00:04;43.03;;;19.80;;
6149;SDS011;3106;42.670;23.318;2022-12-29T03:02:49;39.60;;;19.70;;
6149;SDS011;3106;42.670;23.318;2022-12-29T03:05:35;49.80;;;20.70;;
6149;SDS011;3106;42.670;23.318;2022-12-29T03:08:26;50.63;;;19.50;;
6149;SDS011;3106;42.670;23.318;2022-12-29T03:11:01;43.63;;;18.53;;
6149;SDS011;3106;42.670;23.318;2022-12-29T03:13:31;42.27;;;18.50;;
6149;SDS011;3106;42.670;23.318;2022-12-29T03:16:21;37.20;;;18.10;;
6149;SDS011;3106;42.670;23.318;2022-12-29T03:18:57;42.70;;;19.43;;
6149;SDS011;3106;42.670;23.318;2022-12-29T03:21:32;43.20;;;19.63;;
6149;SDS011;3106;42.670;23.318;2022-12-29T03:24:22;37.70;;;18.27;;
6149;SDS011;3106;42.670;23.318;2022-12-29T03:26:53;38.80;;;19.37;;
6149;SDS011;3106;42.670;23.318;2022-12-29T03:29:22;42.70;;;19.60;;
6149;SDS011;3106;42.670;23.318;2022-12-29T03:31:50;38.57;;;18.67;;
6149;SDS011;3106;42.670;23.318;2022-12-29T03:34:23;41.83;;;20.30;;
6149;SDS011;3106;42.670;23.318;2022-12-29T03:36:52;39.40;;;18.80;;
6149;SDS011;3106;42.670;23.318;2022-12-29T03:39:22;41.03;;;20.33;;
6149;SDS011;3106;42.670;23.318;2022-12-29T03:41:56;43.50;;;21.40;;
6149;SDS011;3106;42.670;23.318;2022-12-29T03:44:31;40.43;;;19.90;;
6149;SDS011;3106;42.670;23.318;2022-12-29T03:46:59;43.40;;;20.47;;
6149;SDS011;3106;42.670;23.318;2022-12-29T03:49:27;41.47;;;20.87;;
6149;SDS011;3106;42.670;23.318;2022-12-29T03:51:54;40.00;;;20.03;;
6149;SDS011;3106;42.670;23.318;2022-12-29T03:54:21;40.90;;;19.43;;
6149;SDS011;3106;42.670;23.318;2022-12-29T03:56:48;50.43;;;23.53;;
6149;SDS011;3106;42.670;23.318;2022-12-29T03:59:18;54.50;;;21.63;;
6149;SDS011;3106;42.670;23.318;2022-12-29T04:01:47;42.07;;;20.67;;
6149;SDS011;3106;42.670;23.318;2022-12-29T04:04:13;49.37;;;22.10;;
6149;SDS011;3106;42.670;23.318;2022-12-29T04:06:42;43.10;;;19.77;;
6149;SDS011;3106;42.670;23.318;2022-12-29T04:09:09;41.77;;;19.73;;
6149;SDS011;3106;42.670;23.318;2022-12-29T04:11:36;45.43;;;20.10;;
6149;SDS011;3106;42.670;23.318;2022-12-29T04:14:05;42.93;;;21.23;;
6149;SDS011;3106;42.670;23.318;2022-12-29T04:16:32;46.43;;;21.50;;
6149;SDS011;3106;42.670;23.318;2022-12-29T04:19:00;41.37;;;20.40;;
6149;SDS011;3106;42.670;23.318;2022-12-29T04:21:27;50.97;;;21.50;;
6149;SDS011;3106;42.670;23.318;2022-12-29T04:23:55;44.07;;;20.93;;
6149;SDS011;3106;42.670;23.318;2022-12-29T04:26:22;45.53;;;20.27;;
6149;SDS011;3106;42.670;23.318;2022-12-29T04:28:49;37.87;;;18.87;;
6149;SDS011;3106;42.670;23.318;2022-12-29T04:31:16;49.27;;;21.03;;
6149;SDS011;3106;42.670;23.318;2022-12-29T04:33:43;43.40;;;19.83;;
6149;SDS011;3106;42.670;23.318;2022-12-29T04:36:10;42.77;;;19.90;;
6149;SDS011;3106;42.670;23.318;2022-12-29T04:38:40;44.47;;;19.70;;
6149;SDS011;3106;42.670;23.318;2022-12-29T04:41:08;48.57;;;20.53;;
6149;SDS011;3106;42.670;23.318;2022-12-29T04:43:35;44.40;;;21.90;;
6149;SDS011;3106;42.670;23.318;2022-12-29T04:46:01;39.67;;;19.80;;
6149;SDS011;3106;42.670;23.318;2022-12-29T04:48:28;46.40;;;20.90;;
6149;SDS011;3106;42.670;23.318;2022-12-29T04:50:55;45.63;;;19.97;;
6149;SDS011;3106;42.670;23.318;2022-12-29T04:53:22;48.40;;;19.20;;
6149;SDS011;3106;42.670;23.318;2022-12-29T04:55:49;48.90;;;21.40;;
6149;SDS011;3106;42.670;23.318;2022-12-29T04:58:21;42.23;;;20.00;;
6149;SDS011;3106;42.670;23.318;2022-12-29T05:00:48;46.47;;;20.60;;
6149;SDS011;3106;42.670;23.318;2022-12-29T05:03:16;51.43;;;21.20;;
6149;SDS011;3106;42.670;23.318;2022-12-29T05:05:47;47.60;;;21.67;;
6149;SDS011;3106;42.670;23.318;2022-12-29T05:08:16;45.90;;;20.60;;
6149;SDS011;3106;42.670;23.318;2022-12-29T05:10:44;45.93;;;20.83;;
6149;SDS011;3106;42.670;23.318;2022-12-29T05:13:11;58.40;;;22.10;;
6149;SDS011;3106;42.670;23.318;2022-12-29T05:15:40;46.33;;;20.73;;
6149;SDS011;3106;42.670;23.318;2022-12-29T05:18:15;47.10;;;20.37;;
6149;SDS011;3106;42.670;23.318;2022-12-29T05:20:42;55.50;;;20.27;;
6149;SDS011;3106;42.670;23.318;2022-12-29T05:23:12;52.40;;;20.30;;
6149;SDS011;3106;42.670;23.318;2022-12-29T05:25:42;47.37;;;20.27;;
6149;SDS011;3106;42.670;23.318;2022-12-29T05:28:12;47.83;;;21.40;;
6149;SDS011;3106;42.670;23.318;2022-12-29T05:30:46;45.90;;;21.40;;
6149;SDS011;3106;42.670;23.318;2022-12-29T05:33:16;53.97;;;20.90;;
6149;SDS011;3106;42.670;23.318;2022-12-29T05:35:43;41.93;;;20.13;;
6149;SDS011;3106;42.670;23.318;2022-12-29T05:38:10;49.90;;;21.43;;
6149;SDS011;3106;42.670;23.318;2022-12-29T05:40:37;49.37;;;23.00;;
6149;SDS011;3106;42.670;23.318;2022-12-29T05:43:08;50.17;;;23.33;;
6149;SDS011;3106;42.670;23.318;2022-12-29T05:45:35;58.70;;;25.00;;
6149;SDS011;3106;42.670;23.318;2022-12-29T05:48:04;48.47;;;23.33;;
6149;SDS011;3106;42.670;23.318;2022-12-29T05:50:31;49.40;;;23.83;;
6149;SDS011;3106;42.670;23.318;2022-12-29T05:52:58;54.33;;;24.83;;
6149;SDS011;3106;42.670;23.318;2022-12-29T05:55:25;48.87;;;22.80;;
6149;SDS011;3106;42.670;23.318;2022-12-29T05:57:55;53.57;;;24.70;;
6149;SDS011;3106;42.670;23.318;2022-12-29T06:00:23;49.90;;;22.30;;
6149;SDS011;3106;42.670;23.318;2022-12-29T06:02:53;47.07;;;23.07;;
6149;SDS011;3106;42.670;23.318;2022-12-29T06:05:21;53.37;;;22.40;;
6149;SDS011;3106;42.670;23.318;2022-12-29T06:07:48;51.03;;;24.03;;
6149;SDS011;3106;42.670;23.318;2022-12-29T06:10:15;54.30;;;25.33;;
6149;SDS011;3106;42.670;23.318;2022-12-29T06:12:43;58.43;;;26.20;;
6149;SDS011;3106;42.670;23.318;2022-12-29T06:15:10;55.00;;;27.80;;
6149;SDS011;3106;42.670;23.318;2022-12-29T06:17:39;57.13;;;26.47;;
6149;SDS011;3106;42.670;23.318;2022-12-29T06:20:07;57.53;;;26.30;;
6149;SDS011;3106;42.670;23.318;2022-12-29T06:22:37;58.53;;;27.90;;
6149;SDS011;3106;42.670;23.318;2022-12-29T06:25:04;56.13;;;27.60;;
6149;SDS011;3106;42.670;23.318;2022-12-29T06:27:32;57.10;;;25.93;;
6149;SDS011;3106;42.670;23.318;2022-12-29T06:29:59;56.60;;;26.87;;
6149;SDS011;3106;42.670;23.318;2022-12-29T06:32:26;59.93;;;29.43;;
6149;SDS011;3106;42.670;23.318;2022-12-29T06:34:52;58.60;;;28.50;;
6149;SDS011;3106;42.670;23.318;2022-12-29T06:37:20;61.63;;;30.43;;
6149;SDS011;3106;42.670;23.318;2022-12-29T06:39:48;72.67;;;30.20;;
6149;SDS011;3106;42.670;23.318;2022-12-29T06:42:15;52.83;;;27.50;;
6149;SDS011;3106;42.670;23.318;2022-12-29T06:44:42;73.67;;;29.97;;
6149;SDS011;3106;42.670;23.318;2022-12-29T06:47:09;67.43;;;31.23;;
6149;SDS011;3106;42.670;23.318;2022-12-29T06:49:36;62.33;;;28.90;;
6149;SDS011;3106;42.670;23.318;2022-12-29T06:52:05;64.27;;;28.70;;
6149;SDS011;3106;42.670;23.318;2022-12-29T06:54:32;64.53;;;30.50;;
6149;SDS011;3106;42.670;23.318;2022-12-29T06:57:01;65.93;;;30.60;;
6149;SDS011;3106;42.670;23.318;2022-12-29T06:59:28;67.80;;;29.50;;
6149;SDS011;3106;42.670;23.318;2022-12-29T07:01:55;62.60;;;28.23;;
6149;SDS011;3106;42.670;23.318;2022-12-29T07:04:22;61.57;;;29.60;;
6149;SDS011;3106;42.670;23.318;2022-12-29T07:06:49;59.40;;;27.97;;
6149;SDS011;3106;42.670;23.318;2022-12-29T07:09:16;61.70;;;28.53;;
6149;SDS011;3106;42.670;23.318;2022-12-29T07:11:43;57.60;;;27.27;;
6149;SDS011;3106;42.670;23.318;2022-12-29T07:14:18;64.20;;;27.90;;
6149;SDS011;3106;42.670;23.318;2022-12-29T07:16:48;77.63;;;31.00;;
6149;SDS011;3106;42.670;23.318;2022-12-29T07:19:18;61.87;;;30.50;;
6149;SDS011;3106;42.670;23.318;2022-12-29T07:21:45;71.20;;;34.50;;
6149;SDS011;3106;42.670;23.318;2022-12-29T07:24:12;73.10;;;32.80;;
6149;SDS011;3106;42.670;23.318;2022-12-29T07:26:39;61.53;;;30.17;;
6149;SDS011;3106;42.670;23.318;2022-12-29T07:29:09;58.40;;;29.27;;
6149;SDS011;3106;42.670;23.318;2022-12-29T07:31:37;60.17;;;29.63;;
6149;SDS011;3106;42.670;23.318;2022-12-29T07:34:04;91.23;;;29.17;;
6149;SDS011;3106;42.670;23.318;2022-12-29T07:36:31;60.10;;;28.67;;
6149;SDS011;3106;42.670;23.318;2022-12-29T07:38:58;62.20;;;28.07;;
6149;SDS011;3106;42.670;23.318;2022-12-29T07:41:28;55.40;;;28.17;;
6149;SDS011;3106;42.670;23.318;2022-12-29T07:43:55;65.93;;;27.37;;
6149;SDS011;3106;42.670;23.318;2022-12-29T07:46:22;50.87;;;27.10;;
6149;SDS011;3106;42.670;23.318;2022-12-29T07:48:51;54.03;;;27.03;;
6149;SDS011;3106;42.670;23.318;2022-12-29T07:51:18;51.80;;;25.80;;
6149;SDS011;3106;42.670;23.318;2022-12-29T07:53:54;54.70;;;25.50;;
6149;SDS011;3106;42.670;23.318;2022-12-29T07:56:21;52.53;;;26.40;;
6149;SDS011;3106;42.670;23.318;2022-12-29T07:58:56;51.60;;;24.87;;
6149;SDS011;3106;42.670;23.318;2022-12-29T08:01:25;49.60;;;24.40;;
6149;SDS011;3106;42.670;23.318;2022-12-29T08:03:53;54.03;;;24.80;;
6149;SDS011;3106;42.670;23.318;2022-12-29T08:06:20;44.50;;;23.83;;
6149;SDS011;3106;42.670;23.318;2022-12-29T08:08:47;45.97;;;23.90;;
6149;SDS011;3106;42.670;23.318;2022-12-29T08:11:14;43.00;;;22.77;;
6149;SDS011;3106;42.670;23.318;2022-12-29T08:13:45;45.40;;;23.37;;
6149;SDS011;3106;42.670;23.318;2022-12-29T08:16:12;51.87;;;24.10;;
6149;SDS011;3106;42.670;23.318;2022-12-29T08:18:39;44.50;;;23.17;;
6149;SDS011;3106;42.670;23.318;2022-12-29T08:21:07;49.43;;;25.50;;
6149;SDS011;3106;42.670;23.318;2022-12-29T08:23:34;45.27;;;24.30;;
6149;SDS011;3106;42.670;23.318;2022-12-29T08:26:05;53.30;;;26.57;;
6149;SDS011;3106;42.670;23.318;2022-12-29T08:28:32;49.17;;;23.73;;
6149;SDS011;3106;42.670;23.318;2022-12-29T08:31:01;59.13;;;26.27;;
6149;SDS011;3106;42.670;23.318;2022-12-29T08:33:29;49.47;;;25.00;;
6149;SDS011;3106;42.670;23.318;2022-12-29T08:35:58;51.43;;;24.30;;
6149;SDS011;3106;42.670;23.318;2022-12-29T08:38:28;57.80;;;27.37;;
6149;SDS011;3106;42.670;23.318;2022-12-29T08:40:55;68.77;;;26.70;;
6149;SDS011;3106;42.670;23.318;2022-12-29T08:43:23;62.43;;;27.60;;
6149;SDS011;3106;42.670;23.318;2022-12-29T08:45:54;54.70;;;24.73;;
6149;SDS011;3106;42.670;23.318;2022-12-29T08:48:24;52.77;;;26.20;;
6149;SDS011;3106;42.670;23.318;2022-12-29T08:50:51;54.40;;;27.20;;
6149;SDS011;3106;42.670;23.318;2022-12-29T08:53:23;54.47;;;25.80;;
6149;SDS011;3106;42.670;23.318;2022-12-29T08:55:55;53.87;;;26.63;;
6149;SDS011;3106;42.670;23.318;2022-12-29T08:58:24;51.30;;;23.67;;
6149;SDS011;3106;42.670;23.318;2022-12-29T09:00:52;48.07;;;25.20;;
6149;SDS011;3106;42.670;23.318;2022-12-29T09:03:19;49.80;;;25.90;;
6149;SDS011;3106;42.670;23.318;2022-12-29T09:05:53;49.77;;;24.27;;
6149;SDS011;3106;42.670;23.318;2022-12-29T09:08:23;51.53;;;26.70;;
6149;SDS011;3106;42.670;23.318;2022-12-29T09:10:50;60.13;;;27.10;;
6149;SDS011;3106;42.670;23.318;2022-12-29T09:13:18;53.13;;;26.57;;
6149;SDS011;3106;42.670;23.318;2022-12-29T09:15:47;52.30;;;26.97;;
6149;SDS011;3106;42.670;23.318;2022-12-29T09:18:14;55.47;;;27.33;;
6149;SDS011;3106;42.670;23.318;2022-12-29T09:20:42;67.10;;;27.67;;
6149;SDS011;3106;42.670;23.318;2022-12-29T09:23:09;51.33;;;26.13;;
6149;SDS011;3106;42.670;23.318;2022-12-29T09:25:36;55.83;;;27.10;;
6149;SDS011;3106;42.670;23.318;2022-12-29T09:28:04;61.07;;;26.70;;
6149;SDS011;3106;42.670;23.318;2022-12-29T09:30:35;56.83;;;27.70;;
6149;SDS011;3106;42.670;23.318;2022-12-29T09:33:02;57.03;;;25.20;;
6149;SDS011;3106;42.670;23.318;2022-12-29T09:35:29;50.13;;;26.10;;
6149;SDS011;3106;42.670;23.318;2022-12-29T09:38:01;49.23;;;25.63;;
6149;SDS011;3106;42.670;23.318;2022-12-29T09:40:29;47.77;;;26.30;;
6149;SDS011;3106;42.670;23.318;2022-12-29T09:43:12;51.43;;;27.37;;
6149;SDS011;3106;42.670;23.318;2022-12-29T09:45:54;61.33;;;28.60;;
6149;SDS011;3106;42.670;23.318;2022-12-29T09:48:29;54.50;;;27.97;;
6149;SDS011;3106;42.670;23.318;2022-12-29T09:51:11;60.40;;;29.70;;
6149;SDS011;3106;42.670;23.318;2022-12-29T09:53:42;52.13;;;27.77;;
6149;SDS011;3106;42.670;23.318;2022-12-29T09:56:15;58.13;;;27.17;;
6149;SDS011;3106;42.670;23.318;2022-12-29T09:58:44;55.40;;;28.63;;
6149;SDS011;3106;42.670;23.318;2022-12-29T10:01:23;57.13;;;30.10;;
6149;SDS011;3106;42.670;23.318;2022-12-29T10:04:02;60.07;;;30.10;;
6149;SDS011;3106;42.670;23.318;2022-12-29T10:06:33;59.30;;;30.60;;
6149;SDS011;3106;42.670;23.318;2022-12-29T10:09:08;81.03;;;32.23;;
6149;SDS011;3106;42.670;23.318;2022-12-29T10:11:48;54.73;;;28.40;;
6149;SDS011;3106;42.670;23.318;2022-12-29T10:14:29;57.70;;;31.07;;
6149;SDS011;3106;42.670;23.318;2022-12-29T10:17:11;58.47;;;28.33;;
6149;SDS011;3106;42.670;23.318;2022-12-29T10:19:52;59.80;;;28.70;;
6149;SDS011;3106;42.670;23.318;2022-12-29T10:22:32;50.90;;;27.60;;
6149;SDS011;3106;42.670;23.318;2022-12-29T10:25:15;52.97;;;26.60;;
6149;SDS011;3106;42.670;23.318;2022-12-29T10:27:45;58.23;;;28.03;;
6149;SDS011;3106;42.670;23.318;2022-12-29T10:30:14;53.80;;;28.97;;
6149;SDS011;3106;42.670;23.318;2022-12-29T10:32:46;65.00;;;29.97;;
6149;SDS011;3106;42.670;23.318;2022-12-29T10:35:16;55.30;;;28.30;;
6149;SDS011;3106;42.670;23.318;2022-12-29T10:37:52;61.23;;;29.90;;
6149;SDS011;3106;42.670;23.318;2022-12-29T10:40:25;59.70;;;28.13;;
6149;SDS011;3106;42.670;23.318;2022-12-29T10:42:57;51.33;;;27.37;;
6149;SDS011;3106;42.670;23.318;2022-12-29T10:45:31;56.50;;;29.00;;
6149;SDS011;3106;42.670;23.318;2022-12-29T10:48:01;56.50;;;28.53;;
6149;SDS011;3106;42.670;23.318;2022-12-29T10:50:34;60.07;;;29.03;;
6149;SDS011;3106;42.670;23.318;2022-12-29T10:53:07;58.33;;;28.37;;
6149;SDS011;3106;42.670;23.318;2022-12-29T10:55:44;55.43;;;29.20;;
6149;SDS011;3106;42.670;23.318;2022-12-29T10:58:12;58.07;;;28.70;;
6149;SDS011;3106;42.670;23.318;2022-12-29T11:00:41;49.60;;;24.50;;
6149;SDS011;3106;42.670;23.318;2022-12-29T11:03:21;58.20;;;29.40;;
6149;SDS011;3106;42.670;23.318;2022-12-29T11:06:05;53.47;;;28.20;;
6149;SDS011;3106;42.670;23.318;2022-12-29T11:08:37;50.80;;;27.73;;
6149;SDS011;3106;42.670;23.318;2022-12-29T11:11:08;58.93;;;27.50;;
6149;SDS011;3106;42.670;23.318;2022-12-29T11:13:47;76.27;;;28.43;;
6149;SDS011;3106;42.670;23.318;2022-12-29T11:16:15;54.10;;;28.97;;
6149;SDS011;3106;42.670;23.318;2022-12-29T11:18:57;52.93;;;27.13;;
6149;SDS011;3106;42.670;23.318;2022-12-29T11:21:26;49.00;;;27.63;;
6149;SDS011;3106;42.670;23.318;2022-12-29T11:23:59;51.67;;;25.70;;
6149;SDS011;3106;42.670;23.318;2022-12-29T11:26:27;52.33;;;26.97;;
6149;SDS011;3106;42.670;23.318;2022-12-29T11:29:04;48.03;;;25.80;;
6149;SDS011;3106;42.670;23.318;2022-12-29T11:31:46;48.23;;;23.90;;
6149;SDS011;3106;42.670;23.318;2022-12-29T11:34:19;58.73;;;25.70;;
6149;SDS011;3106;42.670;23.318;2022-12-29T11:36:49;56.33;;;25.47;;
6149;SDS011;3106;42.670;23.318;2022-12-29T11:39:26;52.73;;;25.63;;
6149;SDS011;3106;42.670;23.318;2022-12-29T11:41:57;44.40;;;24.80;;
6149;SDS011;3106;42.670;23.318;2022-12-29T11:44:24;55.07;;;24.23;;
6149;SDS011;3106;42.670;23.318;2022-12-29T11:46:54;53.60;;;24.20;;
6149;SDS011;3106;42.670;23.318;2022-12-29T11:49:23;43.37;;;23.00;;
6149;SDS011;3106;42.670;23.318;2022-12-29T11:51:52;47.93;;;24.97;;
6149;SDS011;3106;42.670;23.318;2022-12-29T11:54:24;54.53;;;24.33;;
6149;SDS011;3106;42.670;23.318;2022-12-29T11:56:53;49.40;;;24.70;;
6149;SDS011;3106;42.670;23.318;2022-12-29T11:59:37;46.63;;;23.50;;
6149;SDS011;3106;42.670;23.318;2022-12-29T12:02:27;43.00;;;21.37;;
6149;SDS011;3106;42.670;23.318;2022-12-29T12:05:03;39.60;;;21.70;;
6149;SDS011;3106;42.670;23.318;2022-12-29T12:07:41;41.40;;;20.07;;
6149;SDS011;3106;42.670;23.318;2022-12-29T12:10:15;41.67;;;21.20;;
6149;SDS011;3106;42.670;23.318;2022-12-29T12:12:47;36.60;;;20.50;;
6149;SDS011;3106;42.670;23.318;2022-12-29T12:15:24;38.70;;;19.87;;
6149;SDS011;3106;42.670;23.318;2022-12-29T12:18:02;42.30;;;21.60;;
6149;SDS011;3106;42.670;23.318;2022-12-29T12:20:38;58.63;;;20.97;;
6149;SDS011;3106;42.670;23.318;2022-12-29T12:23:15;35.40;;;19.17;;
6149;SDS011;3106;42.670;23.318;2022-12-29T12:25:51;44.43;;;20.43;;
6149;SDS011;3106;42.670;23.318;2022-12-29T12:28:26;38.40;;;20.10;;
6149;SDS011;3106;42.670;23.318;2022-12-29T12:31:01;49.80;;;21.17;;
6149;SDS011;3106;42.670;23.318;2022-12-29T12:33:31;46.70;;;21.40;;
6149;SDS011;3106;42.670;23.318;2022-12-29T12:38:58;47.07;;;22.67;;
6149;SDS011;3106;42.670;23.318;2022-12-29T12:41:37;40.83;;;20.10;;
6149;SDS011;3106;42.670;23.318;2022-12-29T12:44:20;39.13;;;21.50;;
6149;SDS011;3106;42.670;23.318;2022-12-29T12:47:05;40.20;;;20.57;;
6149;SDS011;3106;42.670;23.318;2022-12-29T12:52:39;37.77;;;19.40;;
6149;SDS011;3106;42.670;23.318;2022-12-29T12:55:30;41.80;;;20.97;;
6149;SDS011;3106;42.670;23.318;2022-12-29T12:58:14;39.73;;;20.03;;
6149;SDS011;3106;42.670;23.318;2022-12-29T13:00:48;41.80;;;20.73;;
6149;SDS011;3106;42.670;23.318;2022-12-29T13:03:21;40.90;;;21.50;;
6149;SDS011;3106;42.670;23.318;2022-12-29T13:06:04;38.77;;;20.83;;
6149;SDS011;3106;42.670;23.318;2022-12-29T13:08:49;47.70;;;20.70;;
6149;SDS011;3106;42.670;23.318;2022-12-29T13:11:35;39.27;;;20.03;;
6149;SDS011;3106;42.670;23.318;2022-12-29T13:14:18;42.20;;;20.43;;
6149;SDS011;3106;42.670;23.318;2022-12-29T13:16:54;43.30;;;21.43;;
6149;SDS011;3106;42.670;23.318;2022-12-29T13:19:38;50.73;;;21.10;;
6149;SDS011;3106;42.670;23.318;2022-12-29T13:22:14;39.10;;;20.00;;
6149;SDS011;3106;42.670;23.318;2022-12-29T13:24:53;47.40;;;19.77;;
6149;SDS011;3106;42.670;23.318;2022-12-29T13:27:28;41.27;;;20.80;;
6149;SDS011;3106;42.670;23.318;2022-12-29T13:30:09;40.87;;;20.83;;
6149;SDS011;3106;42.670;23.318;2022-12-29T13:32:43;40.97;;;19.73;;
6149;SDS011;3106;42.670;23.318;2022-12-29T13:35:35;47.20;;;21.17;;
6149;SDS011;3106;42.670;23.318;2022-12-29T13:38:13;36.43;;;19.90;;
6149;SDS011;3106;42.670;23.318;2022-12-29T13:40:47;37.90;;;19.30;;
6149;SDS011;3106;42.670;23.318;2022-12-29T13:43:20;45.73;;;20.40;;
6149;SDS011;3106;42.670;23.318;2022-12-29T13:45:55;40.73;;;20.00;;
6149;SDS011;3106;42.670;23.318;2022-12-29T13:48:37;36.10;;;19.53;;
6149;SDS011;3106;42.670;23.318;2022-12-29T13:51:10;37.50;;;20.60;;
6149;SDS011;3106;42.670;23.318;2022-12-29T13:53:51;39.73;;;20.07;;
6149;SDS011;3106;42.670;23.318;2022-12-29T13:56:35;38.03;;;20.40;;
6149;SDS011;3106;42.670;23.318;2022-12-29T13:59:12;41.00;;;19.30;;
6149;SDS011;3106;42.670;23.318;2022-12-29T14:01:53;41.93;;;20.47;;
6149;SDS011;3106;42.670;23.318;2022-12-29T14:04:27;46.50;;;21.40;;
6149;SDS011;3106;42.670;23.318;2022-12-29T14:07:02;45.07;;;21.33;;
6149;SDS011;3106;42.670;23.318;2022-12-29T14:09:40;41.13;;;19.87;;
6149;SDS011;3106;42.670;23.318;2022-12-29T14:12:20;37.83;;;20.23;;
6149;SDS011;3106;42.670;23.318;2022-12-29T14:14:55;41.40;;;20.10;;
6149;SDS011;3106;42.670;23.318;2022-12-29T14:17:29;43.50;;;21.90;;
6149;SDS011;3106;42.670;23.318;2022-12-29T14:19:56;43.00;;;20.83;;
6149;SDS011;3106;42.670;23.318;2022-12-29T14:22:23;52.43;;;22.40;;
6149;SDS011;3106;42.670;23.318;2022-12-29T14:24:51;45.17;;;22.87;;
6149;SDS011;3106;42.670;23.318;2022-12-29T14:30:06;46.93;;;22.03;;
6149;SDS011;3106;42.670;23.318;2022-12-29T14:33:24;45.10;;;22.73;;
6149;SDS011;3106;42.670;23.318;2022-12-29T14:35:54;48.13;;;21.63;;
6149;SDS011;3106;42.670;23.318;2022-12-29T14:38:25;42.60;;;21.73;;
6149;SDS011;3106;42.670;23.318;2022-12-29T14:43:51;50.53;;;21.20;;
6149;SDS011;3106;42.670;23.318;2022-12-29T14:46:25;42.40;;;21.57;;
6149;SDS011;3106;42.670;23.318;2022-12-29T14:49:08;44.70;;;22.03;;
6149;SDS011;3106;42.670;23.318;2022-12-29T14:51:43;48.13;;;22.90;;
6149;SDS011;3106;42.670;23.318;2022-12-29T14:57:25;43.17;;;21.30;;
6149;SDS011;3106;42.670;23.318;2022-12-29T15:00:05;60.40;;;24.83;;
6149;SDS011;3106;42.670;23.318;2022-12-29T15:02:47;64.00;;;27.40;;
6149;SDS011;3106;42.670;23.318;2022-12-29T15:05:30;62.17;;;24.70;;
6149;SDS011;3106;42.670;23.318;2022-12-29T15:08:05;62.33;;;24.60;;
6149;SDS011;3106;42.670;23.318;2022-12-29T15:10:36;51.50;;;25.10;;
6149;SDS011;3106;42.670;23.318;2022-12-29T15:13:13;47.00;;;24.87;;
6149;SDS011;3106;42.670;23.318;2022-12-29T15:15:42;55.93;;;24.83;;
6149;SDS011;3106;42.670;23.318;2022-12-29T15:18:18;51.17;;;25.00;;
6149;SDS011;3106;42.670;23.318;2022-12-29T15:20:51;42.47;;;23.10;;
6149;SDS011;3106;42.670;23.318;2022-12-29T15:23:21;46.10;;;23.30;;